Map

Track Data

SID SEASON NUMBER BASIN SUBBASIN NAME ISO_TIME NATURE LAT LON WMO_WIND WMO_PRES WMO_AGENCY TRACK_TYPE DIST2LAND LANDFALL IFLAG USA_AGENCY USA_ATCF_ID USA_LAT USA_LON USA_RECORD USA_STATUS USA_WIND USA_PRES USA_SSHS USA_R34_NE USA_R34_SE USA_R34_SW USA_R34_NW USA_R50_NE USA_R50_SE USA_R50_SW USA_R50_NW USA_R64_NE USA_R64_SE USA_R64_SW USA_R64_NW USA_POCI USA_ROCI USA_RMW USA_EYE TOKYO_LAT TOKYO_LON TOKYO_GRADE TOKYO_WIND TOKYO_PRES TOKYO_R50_DIR TOKYO_R50_LONG TOKYO_R50_SHORT TOKYO_R30_DIR TOKYO_R30_LONG TOKYO_R30_SHORT TOKYO_LAND CMA_LAT CMA_LON CMA_CAT CMA_WIND CMA_PRES HKO_LAT HKO_LON HKO_CAT HKO_WIND HKO_PRES NEWDELHI_LAT NEWDELHI_LON NEWDELHI_GRADE NEWDELHI_WIND NEWDELHI_PRES NEWDELHI_CI NEWDELHI_DP NEWDELHI_POCI REUNION_LAT REUNION_LON REUNION_TYPE REUNION_WIND REUNION_PRES REUNION_TNUM REUNION_CI REUNION_RMW REUNION_R34_NE REUNION_R34_SE REUNION_R34_SW REUNION_R34_NW REUNION_R50_NE REUNION_R50_SE REUNION_R50_SW REUNION_R50_NW REUNION_R64_NE REUNION_R64_SE REUNION_R64_SW REUNION_R64_NW BOM_LAT BOM_LON BOM_TYPE BOM_WIND BOM_PRES BOM_TNUM BOM_CI BOM_RMW BOM_R34_NE BOM_R34_SE BOM_R34_SW BOM_R34_NW BOM_R50_NE BOM_R50_SE BOM_R50_SW BOM_R50_NW BOM_R64_NE BOM_R64_SE BOM_R64_SW BOM_R64_NW BOM_ROCI BOM_POCI BOM_EYE BOM_POS_METHOD BOM_PRES_METHOD NADI_LAT NADI_LON NADI_CAT NADI_WIND NADI_PRES WELLINGTON_LAT WELLINGTON_LON WELLINGTON_WIND WELLINGTON_PRES DS824_LAT DS824_LON DS824_STAGE DS824_WIND DS824_PRES TD9636_LAT TD9636_LON TD9636_STAGE TD9636_WIND TD9636_PRES TD9635_LAT TD9635_LON TD9635_WIND TD9635_PRES TD9635_ROCI NEUMANN_LAT NEUMANN_LON NEUMANN_CLASS NEUMANN_WIND NEUMANN_PRES MLC_LAT MLC_LON MLC_CLASS MLC_WIND MLC_PRES USA_GUST BOM_GUST BOM_GUST_PER REUNION_GUST REUNION_GUST_PER USA_SEAHGT USA_SEARAD_NE USA_SEARAD_SE USA_SEARAD_SW USA_SEARAD_NW STORM_SPEED STORM_DIR
1935224N24086 1935 42 NI BB NOT_NAMED 1935-08-12 00:00:00 TS 24.1000 85.7000 main 0 0 _________O____ -1 24.1000 85.7000 TC 30 0 0
1935224N24086 1935 42 NI BB NOT_NAMED 1935-08-12 03:00:00 TS 24.1000 85.7000 main 0 0 _________PO___ -1 24.1000 85.7000 TC 30 24.1000 85.7000 1 0 0
1935224N24086 1935 42 NI BB NOT_NAMED 1935-08-12 06:00:00 TS 24.1019 85.6919 main 0 0 _________OP___ -1 24.1000 85.7000 TC 30 24.1048 85.6797 1 0 0
1935224N24086 1935 42 NI BB NOT_NAMED 1935-08-12 09:00:00 TS 24.1033 85.6861 main 0 0 _________PP___ -1 24.1000 85.7000 TC 30 24.1076 85.6676 1 0 0
1935224N24086 1935 42 NI BB NOT_NAMED 1935-08-12 12:00:00 TS 24.1033 85.6858 main 0 0 _________OP___ -1 24.1000 85.7000 TC 30 24.1067 85.6716 1 0 0
1935224N24086 1935 42 NI BB NOT_NAMED 1935-08-12 15:00:00 TS 24.1000 85.7000 main 0 0 _________PO___ -1 24.1000 85.7000 TC 30 24.1000 85.7000 1 0 104
1935224N24086 1935 42 NI BB NOT_NAMED 1935-08-12 18:00:00 TS 24.0938 85.7263 main 0 0 _________OP___ -1 24.1000 85.7000 TC 30 24.0876 85.7527 1 1 106
1935224N24086 1935 42 NI BB NOT_NAMED 1935-08-12 21:00:00 TS 24.0847 85.7673 main 0 0 _________PP___ -1 24.0924 85.7375 TC 30 24.0771 85.7972 1 0 0
1935224N24086 1935 42 NI BB NOT_NAMED 1935-08-13 00:00:00 TS 24.0890 85.7466 main 0 0 _________OP___ -1 24.1000 85.7000 TC 30 24.0780 85.7932 1 2 282
1935224N24086 1935 42 NI BB NOT_NAMED 1935-08-13 03:00:00 TS 24.1175 85.6050 main 0 0 _________PO___ -1 24.1349 85.5099 TC 30 24.1000 85.7000 1 4 283
1935224N24086 1935 42 NI BB NOT_NAMED 1935-08-13 06:00:00 TS 24.1790 85.3283 main 0 0 _________OP___ -1 24.2000 85.2000 TC 30 24.1580 85.4566 1 6 284
1935224N24086 1935 42 NI BB NOT_NAMED 1935-08-13 09:00:00 TS 24.2680 84.9628 main 0 0 _________PP___ -1 24.3002 84.8001 TC 30 24.2358 85.1255 1 7 285
1935224N24086 1935 42 NI BB NOT_NAMED 1935-08-13 12:00:00 TS 24.3603 84.5783 main 0 0 _________OP___ -1 24.4000 84.4000 TC 30 24.3206 84.7566 1 7 284
1935224N24086 1935 42 NI BB NOT_NAMED 1935-08-13 15:00:00 TS 24.4287 84.2637 main 0 0 _________PO___ -1 24.4573 84.1274 TC 30 24.4000 84.4000 1 5 283
1935224N24086 1935 42 NI BB NOT_NAMED 1935-08-13 18:00:00 TS 24.4717 84.0504 main 0 0 _________OP___ -1 24.5000 83.9000 TC 30 24.4434 84.2007 1 4 282
1935224N24086 1935 42 NI BB NOT_NAMED 1935-08-13 21:00:00 TS 24.5084 83.8642 main 0 0 _________PP___ -1 24.5344 83.7172 TC 30 24.4824 84.0112 1 4 282
1935224N24086 1935 42 NI BB NOT_NAMED 1935-08-14 00:00:00 TS 24.5652 83.5831 main 0 0 _________OP___ -1 24.6000 83.4000 TC 30 24.5304 83.7661 1 7 283
1935224N24086 1935 42 NI BB NOT_NAMED 1935-08-14 03:00:00 TS 24.6715 83.0839 main 0 0 _________PO___ -1 24.7429 82.7678 TC 30 24.6000 83.4000 1 11 283
1935224N24086 1935 42 NI BB NOT_NAMED 1935-08-14 06:00:00 TS 24.8048 82.3989 main 0 0 _________OP___ -1 24.9000 82.0000 TC 30 24.7097 82.7977 1 13 281
1935224N24086 1935 42 NI BB NOT_NAMED 1935-08-14 09:00:00 TS 24.9229 81.6730 main 0 0 _________PP___ -1 25.0075 81.2699 TC 30 24.8382 82.0761 1 13 280
1935224N24086 1935 42 NI BB NOT_NAMED 1935-08-14 12:00:00 TS 25.0361 80.9582 main 0 0 _________OP___ -1 25.1000 80.6000 TC 30 24.9722 81.3163 1 12 281
1935224N24086 1935 42 NI BB NOT_NAMED 1935-08-14 15:00:00 TS 25.1497 80.3349 main 0 0 _________PO___ -1 25.1995 80.0699 TC 30 25.1000 80.6000 1 10 282
1935224N24086 1935 42 NI BB NOT_NAMED 1935-08-14 18:00:00 TS 25.2508 79.8230 main 0 0 _________OP___ -1 25.3000 79.6000 TC 30 25.2138 79.9903 1 9 282
1935224N24086 1935 42 NI BB NOT_NAMED 1935-08-14 21:00:00 TS 25.3497 79.3289 main 0 0 _________PP___ -1 25.4005 79.1102 TC 30 25.3159 79.4747 1 9 283
1935224N24086 1935 42 NI BB NOT_NAMED 1935-08-15 00:00:00 TS 25.4400 78.8812 main 0 0 _________OP___ -1 25.5000 78.6000 TC 30 25.4101 79.0218 1 7 283
1935224N24086 1935 42 NI BB NOT_NAMED 1935-08-15 03:00:00 NR 25.5000 78.6000 main 0 __________O___ -1 TC 25.5000 78.6000 1 5 283

About IBTrACS Database

This database is a web-friendly format of International Best Track Archive for Climate Stewardship (IBTrACS), a global best track data archive curated by NOAA dating back to 1842.

Updated: 2021-11-26